createdAt,value
2018-12-11T00:01:53.373Z,101388.30
2018-12-11T00:04:26.421Z,101385.85
2018-12-11T00:06:59.150Z,101383.75
2018-12-11T00:09:31.932Z,101379.16
2018-12-11T00:12:02.166Z,101387.22
2018-12-11T00:14:38.453Z,101391.96
2018-12-11T00:17:11.690Z,101386.36
2018-12-11T00:19:44.181Z,101385.28
2018-12-11T00:22:20.579Z,101377.57
2018-12-11T00:24:53.399Z,101387.22
2018-12-11T00:27:24.463Z,101381.87
2018-12-11T00:29:57.242Z,101385.27
2018-12-11T00:32:33.483Z,101391.38
2018-12-11T00:35:10.511Z,101383.78
2018-12-11T00:37:43.427Z,101381.00
2018-12-11T00:40:20.187Z,101377.52
2018-12-11T00:42:53.106Z,101376.45
2018-12-11T00:45:26.043Z,101367.95
2018-12-11T00:47:58.833Z,101365.02
2018-12-11T00:50:30.888Z,101361.63
2018-12-11T00:53:04.032Z,101369.25
2018-12-11T00:55:36.811Z,101372.28
2018-12-11T00:58:09.867Z,101371.64
2018-12-11T01:00:43.175Z,101368.08
2018-12-11T01:03:15.975Z,101377.13
2018-12-11T01:05:48.989Z,101390.24
2018-12-11T01:08:22.173Z,101379.35
2018-12-11T01:10:59.176Z,101377.25
2018-12-11T01:13:32.141Z,101390.08
2018-12-11T01:16:05.268Z,101382.75
2018-12-11T01:18:42.209Z,101389.66
2018-12-11T01:21:15.198Z,101390.63
2018-12-11T01:23:48.657Z,101388.33
2018-12-11T01:26:21.269Z,101385.33
2018-12-11T01:28:54.275Z,101394.00
2018-12-11T01:31:27.588Z,101395.12
2018-12-11T01:34:00.312Z,101389.06
2018-12-11T01:36:35.251Z,101390.10
2018-12-11T01:39:09.736Z,101386.55
2018-12-11T01:41:48.578Z,101389.55
2018-12-11T01:44:21.155Z,101390.91
2018-12-11T01:46:54.071Z,101394.80
2018-12-11T01:49:27.018Z,101395.44
2018-12-11T01:51:59.763Z,101403.83
2018-12-11T01:54:32.877Z,101399.05
2018-12-11T01:57:06.269Z,101389.66
2018-12-11T01:59:38.898Z,101396.73
2018-12-11T02:02:11.751Z,101396.81
2018-12-11T02:04:44.687Z,101397.38
2018-12-11T02:07:17.492Z,101396.81
2018-12-11T02:09:48.752Z,101391.80
2018-12-11T02:12:21.359Z,101400.23
2018-12-11T02:14:58.413Z,101394.50
2018-12-11T02:17:29.383Z,101395.42
2018-12-11T02:20:02.331Z,101398.46
2018-12-11T02:22:32.957Z,101385.54
2018-12-11T02:25:09.819Z,101401.44
2018-12-11T02:27:46.831Z,101400.43
2018-12-11T02:30:23.900Z,101397.09
2018-12-11T02:32:57.590Z,101391.77
2018-12-11T02:35:37.768Z,101390.48
2018-12-11T02:38:49.943Z,101392.09
2018-12-11T02:41:26.570Z,101389.20
2018-12-11T02:43:55.528Z,101390.85
2018-12-11T02:46:32.174Z,101401.84
2018-12-11T02:49:01.175Z,101400.56
2018-12-11T02:51:33.595Z,101394.55
2018-12-11T02:54:04.642Z,101394.58
2018-12-11T02:56:46.731Z,101398.20
2018-12-11T02:59:23.000Z,101388.53
2018-12-11T03:01:51.935Z,101395.34
2018-12-11T03:04:28.650Z,101391.66
2018-12-11T03:07:32.046Z,101394.14
2018-12-11T03:10:05.705Z,101396.19
2018-12-11T03:15:59.719Z,101390.61
2018-12-11T03:18:32.319Z,101386.28
2018-12-11T03:21:08.410Z,101391.45
2018-12-11T03:23:37.493Z,101384.28
2018-12-11T03:26:40.740Z,101393.27
2018-12-11T03:32:41.277Z,101389.65
2018-12-11T03:35:18.134Z,101394.83
2018-12-11T03:37:55.959Z,101402.48
2018-12-11T03:40:26.695Z,101399.44
2018-12-11T03:42:59.887Z,101399.39
2018-12-11T03:45:30.735Z,101403.97
2018-12-11T03:48:07.388Z,101399.87
2018-12-11T03:50:45.470Z,101393.50
2018-12-11T03:53:17.570Z,101401.95
2018-12-11T03:55:50.547Z,101405.63
2018-12-11T03:58:27.947Z,101402.63
2018-12-11T04:01:04.498Z,101396.42
2018-12-11T04:03:37.163Z,101397.58
2018-12-11T04:06:09.927Z,101396.55
2018-12-11T04:08:46.819Z,101387.77
2018-12-11T04:11:32.931Z,101384.79
2018-12-11T04:14:05.697Z,101395.42
2018-12-11T04:16:38.349Z,101394.41
2018-12-11T04:19:15.003Z,101389.69
2018-12-11T04:21:51.761Z,101385.47
2018-12-11T04:24:28.598Z,101386.80
2018-12-11T04:27:01.454Z,101380.96
2018-12-11T04:29:34.407Z,101391.16
2018-12-11T04:32:12.054Z,101384.94
2018-12-11T04:34:48.670Z,101388.58
2018-12-11T04:37:25.450Z,101382.09
2018-12-11T04:40:02.425Z,101387.19
2018-12-11T04:42:35.166Z,101391.12
2018-12-11T04:45:12.006Z,101389.16
2018-12-11T04:47:48.202Z,101399.70
2018-12-11T04:50:25.202Z,101394.61
2018-12-11T04:52:58.346Z,101401.91
2018-12-11T04:55:35.229Z,101401.42
2018-12-11T04:58:12.110Z,101402.34
2018-12-11T05:00:48.984Z,101405.19
2018-12-11T05:03:21.999Z,101402.89
2018-12-11T05:05:55.079Z,101403.07
2018-12-11T05:08:25.887Z,101401.52
2018-12-11T05:11:02.892Z,101399.39
2018-12-11T05:13:39.834Z,101396.09
2018-12-11T05:16:12.898Z,101399.94
2018-12-11T05:18:49.843Z,101395.99
2018-12-11T05:21:22.764Z,101404.59
2018-12-11T05:26:24.279Z,101399.58
2018-12-11T05:28:57.370Z,101395.25
2018-12-11T05:31:28.186Z,101397.77
2018-12-11T05:34:05.396Z,101392.87
2018-12-11T05:36:36.696Z,101406.81
2018-12-11T05:39:09.659Z,101407.48
2018-12-11T05:41:42.476Z,101399.86
2018-12-11T05:44:19.527Z,101404.80
2018-12-11T05:46:52.350Z,101401.51
2018-12-11T05:49:24.663Z,101400.45
2018-12-11T05:51:57.611Z,101402.36
2018-12-11T05:54:29.930Z,101401.97
2018-12-11T05:57:02.967Z,101400.65
2018-12-11T05:59:39.559Z,101401.65
2018-12-11T06:02:12.444Z,101404.56
2018-12-11T06:04:45.615Z,101403.11
2018-12-11T06:07:18.915Z,101406.11
2018-12-11T06:09:51.642Z,101405.14
2018-12-11T06:12:24.727Z,101412.19
2018-12-11T06:14:57.740Z,101404.56
2018-12-11T06:17:30.558Z,101412.89
2018-12-11T06:20:03.542Z,101406.37
2018-12-11T06:22:36.637Z,101416.42
2018-12-11T06:25:09.397Z,101419.61
2018-12-11T06:42:53.987Z,101419.16
2018-12-11T06:45:27.071Z,101426.34
2018-12-11T06:48:00.103Z,101421.13
2018-12-11T06:50:33.194Z,101421.27
2018-12-11T06:53:06.064Z,101425.11
2018-12-11T06:55:38.275Z,101422.39
2018-12-11T06:58:11.283Z,101423.72
2018-12-11T07:00:44.159Z,101423.84
2018-12-11T07:03:18.287Z,101423.69
2018-12-11T07:05:51.231Z,101436.16
2018-12-11T07:08:24.418Z,101438.91
2018-12-11T07:10:57.032Z,101441.35
2018-12-11T07:13:30.212Z,101442.12
2018-12-11T07:16:03.033Z,101436.72
2018-12-11T07:18:35.317Z,101444.66
2018-12-11T07:21:08.211Z,101447.76
2018-12-11T07:23:41.391Z,101449.88
2018-12-11T07:26:14.532Z,101451.30
2018-12-11T07:28:46.779Z,101456.19
2018-12-11T07:31:19.523Z,101447.05
2018-12-11T07:33:51.859Z,101446.72
2018-12-11T07:36:28.735Z,101457.03
2018-12-11T07:39:01.591Z,101454.55
2018-12-11T07:41:34.316Z,101472.31
2018-12-11T07:54:10.988Z,101471.28
2018-12-11T07:56:43.799Z,101473.20
2018-12-11T07:59:16.860Z,101474.16
2018-12-11T08:01:49.752Z,101470.15
2018-12-11T08:04:21.975Z,101465.09
2018-12-11T08:06:55.060Z,101467.78
2018-12-11T08:09:28.074Z,101467.22
2018-12-11T08:12:01.078Z,101465.98
2018-12-11T08:14:33.875Z,101471.55
2018-12-11T08:17:06.394Z,101479.94
2018-12-11T08:19:39.518Z,101473.27
2018-12-11T08:22:12.287Z,101479.52
2018-12-11T08:24:44.443Z,101476.56
2018-12-11T08:27:17.829Z,101473.23
2018-12-11T08:29:50.355Z,101475.50
2018-12-11T08:32:24.195Z,101481.28
2018-12-11T08:34:57.197Z,101472.23
2018-12-11T08:37:30.611Z,101473.43
2018-12-11T08:40:03.876Z,101469.09
2018-12-11T08:42:37.551Z,101475.91
2018-12-11T08:45:10.715Z,101480.08
2018-12-11T08:47:43.664Z,101474.88
2018-12-11T08:50:16.859Z,101475.83
2018-12-11T08:52:49.886Z,101478.94
2018-12-11T08:55:26.042Z,101468.24
2018-12-11T08:57:58.269Z,101466.00
2018-12-11T09:00:30.887Z,101476.67
2018-12-11T09:03:04.635Z,101487.67
2018-12-11T09:05:37.986Z,101481.20
2018-12-11T09:08:10.647Z,101484.67
2018-12-11T09:10:43.627Z,101481.98
2018-12-11T09:13:16.776Z,101481.88
2018-12-11T09:15:49.855Z,101491.68
2018-12-11T09:18:22.804Z,101487.09
2018-12-11T09:20:55.040Z,101483.87
2018-12-11T09:23:29.433Z,101480.45
2018-12-11T09:26:02.283Z,101501.79
2018-12-11T09:28:38.456Z,101504.55
2018-12-11T09:31:10.799Z,101513.44
2018-12-11T09:33:44.435Z,101507.94
2018-12-11T09:36:17.551Z,101491.85
2018-12-11T09:38:50.607Z,101491.81
2018-12-11T09:41:23.889Z,101493.02
2018-12-11T09:43:57.953Z,101493.53
2018-12-11T09:46:31.496Z,101497.13
2018-12-11T09:49:04.834Z,101498.66
2018-12-11T09:51:37.124Z,101504.01
2018-12-11T09:54:09.741Z,101504.92
2018-12-11T09:56:42.575Z,101499.89
2018-12-11T09:59:23.439Z,101503.53
2018-12-11T10:01:55.697Z,101508.37
2018-12-11T10:04:29.574Z,101507.70
2018-12-11T10:07:02.193Z,101509.97
2018-12-11T10:09:34.991Z,101509.18
2018-12-11T10:12:07.548Z,101507.55
2018-12-11T10:14:40.334Z,101503.63
2018-12-11T10:17:13.469Z,101503.22
2018-12-11T10:19:45.733Z,101496.54
2018-12-11T10:22:18.667Z,101499.87
2018-12-11T10:24:51.815Z,101498.98
2018-12-11T10:27:24.871Z,101500.11
2018-12-11T10:29:57.015Z,101500.22
2018-12-11T10:32:29.279Z,101498.50
2018-12-11T10:35:03.143Z,101493.73
2018-12-11T10:37:36.119Z,101499.75
2018-12-11T10:40:09.082Z,101499.13
2018-12-11T10:42:42.295Z,101495.17
2018-12-11T10:45:16.496Z,101497.45
2018-12-11T10:47:49.084Z,101500.45
2018-12-11T10:50:22.797Z,101498.15
2018-12-11T10:52:55.370Z,101497.09
2018-12-11T10:55:29.812Z,101490.80
2018-12-11T10:58:02.770Z,101496.56
2018-12-11T11:00:40.823Z,101491.11
2018-12-11T11:03:13.760Z,101492.80
2018-12-11T11:05:47.289Z,101488.00
2018-12-11T11:08:19.878Z,101498.98
2018-12-11T11:10:52.910Z,101489.19
2018-12-11T11:13:27.263Z,101492.61
2018-12-11T11:16:00.372Z,101493.97
2018-12-11T11:18:33.303Z,101496.16
2018-12-11T11:21:06.395Z,101495.16
2018-12-11T11:23:40.627Z,101489.02
2018-12-11T11:26:13.443Z,101489.70
2018-12-11T11:28:46.591Z,101487.34
2018-12-11T11:31:19.635Z,101495.85
2018-12-11T11:33:57.078Z,101494.86
2018-12-11T11:36:32.479Z,101492.52
2018-12-11T11:39:07.755Z,101498.64
2018-12-11T11:41:40.835Z,101486.23
2018-12-11T11:44:14.239Z,101481.50
2018-12-11T11:46:47.149Z,101491.33
2018-12-11T11:49:23.434Z,101490.18
2018-12-11T11:51:56.570Z,101486.86
2018-12-11T11:54:29.857Z,101490.91
2018-12-11T11:57:00.637Z,101485.97
2018-12-11T12:02:05.586Z,101492.95
2018-12-11T12:04:39.882Z,101489.60
2018-12-11T12:07:12.746Z,101489.59
2018-12-11T12:09:45.911Z,101490.08
2018-12-11T12:12:18.740Z,101492.69
2018-12-11T12:14:51.167Z,101494.17
2018-12-11T12:17:24.123Z,101493.44
2018-12-11T12:19:56.943Z,101492.11
2018-12-11T12:22:29.959Z,101490.61
2018-12-11T12:25:04.483Z,101486.28
2018-12-11T12:27:38.319Z,101483.47
2018-12-11T12:30:10.892Z,101482.48
2018-12-11T12:32:43.833Z,101484.97
2018-12-11T12:35:21.703Z,101492.09
2018-12-11T12:37:54.691Z,101478.89
2018-12-11T12:40:27.582Z,101485.10
2018-12-11T12:43:00.867Z,101481.34
2018-12-11T12:45:33.705Z,101484.31
2018-12-11T12:48:07.579Z,101489.98
2018-12-11T12:50:40.024Z,101480.03
2018-12-11T12:53:13.120Z,101480.92
2018-12-11T12:55:49.379Z,101482.34
2018-12-11T12:58:22.272Z,101467.78
2018-12-11T13:00:55.710Z,101477.89
2018-12-11T13:03:28.474Z,101477.89
2018-12-11T13:06:01.405Z,101466.80
2018-12-11T13:08:34.394Z,101472.42
2018-12-11T13:11:06.891Z,101469.17
2018-12-11T13:13:43.922Z,101469.96
2018-12-11T13:16:18.015Z,101464.47
2018-12-11T13:18:50.835Z,101466.45
2018-12-11T13:21:24.099Z,101466.73
2018-12-11T13:23:57.555Z,101465.52
2018-12-11T13:26:30.575Z,101472.13
2018-12-11T13:29:03.586Z,101471.66
2018-12-11T13:31:36.451Z,101473.17
2018-12-11T13:34:09.615Z,101471.17
2018-12-11T13:36:42.695Z,101475.11
2018-12-11T13:39:16.002Z,101478.50
2018-12-11T13:41:48.891Z,101483.97
2018-12-11T13:44:21.870Z,101484.06
2018-12-11T13:46:54.611Z,101480.44
2018-12-11T13:49:27.619Z,101479.75
2018-12-11T13:52:00.691Z,101489.52
2018-12-11T13:54:35.622Z,101489.43
2018-12-11T13:57:08.135Z,101490.47
2018-12-11T13:59:41.367Z,101494.00
2018-12-11T14:02:14.765Z,101491.30
2018-12-11T14:04:47.491Z,101491.67
2018-12-11T14:07:20.297Z,101498.07
2018-12-11T14:09:52.559Z,101488.80
2018-12-11T14:12:25.651Z,101490.16
2018-12-11T14:15:00.207Z,101501.16
2018-12-11T14:17:33.173Z,101494.56
2018-12-11T14:20:07.464Z,101491.94
2018-12-11T14:22:41.087Z,101490.96
2018-12-11T14:25:15.511Z,101497.11
2018-12-11T14:27:49.136Z,101495.12
2018-12-11T14:30:22.452Z,101494.63
2018-12-11T14:32:55.227Z,101493.95
2018-12-11T14:35:29.014Z,101491.98
2018-12-11T14:38:01.293Z,101492.32
2018-12-11T14:40:34.426Z,101498.97
2018-12-11T14:43:11.499Z,101497.49
2018-12-11T14:45:44.427Z,101492.00
2018-12-11T14:48:17.470Z,101495.66
2018-12-11T14:50:53.674Z,101497.84
2018-12-11T14:53:26.871Z,101496.49
2018-12-11T14:56:00.846Z,101492.69
2018-12-11T14:58:34.611Z,101497.18
2018-12-11T15:01:08.100Z,101499.00
2018-12-11T15:03:40.846Z,101498.85
2018-12-11T15:06:17.443Z,101499.33
2018-12-11T15:16:25.147Z,101499.00
2018-12-11T15:19:00.012Z,101497.69
2018-12-11T15:21:33.250Z,101499.02
2018-12-11T15:24:06.522Z,101509.32
2018-12-11T15:26:40.403Z,101506.01
2018-12-11T15:29:14.432Z,101504.68
2018-12-11T15:31:47.283Z,101502.17
2018-12-11T15:34:20.630Z,101507.80
2018-12-11T15:36:53.683Z,101505.98
2018-12-11T15:39:26.047Z,101507.64
2018-12-11T15:41:58.646Z,101507.64
2018-12-11T15:44:32.335Z,101509.29
2018-12-11T15:47:06.070Z,101511.95
2018-12-11T15:49:44.778Z,101509.96
2018-12-11T15:52:17.871Z,101509.45
2018-12-11T15:54:55.802Z,101512.61
2018-12-11T15:57:32.415Z,101516.57
2018-12-11T16:00:07.376Z,101517.73
2018-12-11T16:02:40.374Z,101522.59
2018-12-11T16:05:12.696Z,101526.58
2018-12-11T16:07:46.856Z,101524.90
2018-12-11T16:10:19.664Z,101525.41
2018-12-11T16:12:52.722Z,101526.08
2018-12-11T16:15:25.944Z,101528.43
2018-12-11T16:18:03.019Z,101532.39
2018-12-11T16:20:36.195Z,101535.08
2018-12-11T16:23:09.139Z,101537.73
2018-12-11T16:25:42.259Z,101541.55
2018-12-11T16:28:15.144Z,101530.59
2018-12-11T16:30:48.100Z,101533.58
2018-12-11T16:33:20.830Z,101538.41
2018-12-11T16:35:53.983Z,101532.76
2018-12-11T16:38:26.912Z,101535.91
2018-12-11T16:40:59.751Z,101536.75
2018-12-11T16:43:32.738Z,101534.59
2018-12-11T16:46:05.911Z,101540.89
2018-12-11T16:48:38.710Z,101540.23
2018-12-11T16:51:11.887Z,101537.57
2018-12-11T16:53:45.702Z,101544.72
2018-12-11T16:56:19.038Z,101542.03
2018-12-11T16:58:51.922Z,101540.34
2018-12-11T17:01:25.181Z,101551.31
2018-12-11T17:03:58.091Z,101551.48
2018-12-11T17:06:32.159Z,101547.49
2018-12-11T17:09:06.145Z,101547.17
2018-12-11T17:11:39.443Z,101547.63
2018-12-11T17:14:12.204Z,101555.79
2018-12-11T17:16:46.363Z,101554.63
2018-12-11T17:19:19.330Z,101562.09
2018-12-11T17:34:28.635Z,101570.34
2018-12-11T17:37:01.834Z,101573.15
2018-12-11T17:39:34.786Z,101567.02
2018-12-11T17:42:08.139Z,101572.73
2018-12-11T17:44:41.402Z,101577.00
2018-12-11T17:47:15.472Z,101574.66
2018-12-11T17:49:48.301Z,101581.30
2018-12-11T17:52:21.271Z,101580.32
2018-12-11T17:54:54.079Z,101587.25
2018-12-11T17:57:27.195Z,101589.28
2018-12-11T18:00:00.114Z,101587.42
2018-12-11T18:02:37.109Z,101585.32
2018-12-11T18:05:10.348Z,101586.76
2018-12-11T18:07:44.620Z,101587.98
2018-12-11T18:10:21.395Z,101597.69
2018-12-11T18:12:54.703Z,101594.46
2018-12-11T18:15:27.588Z,101586.19
2018-12-11T18:18:00.559Z,101596.70
2018-12-11T18:20:33.507Z,101601.26
2018-12-11T18:23:06.837Z,101608.28
2018-12-11T18:25:39.916Z,101599.05
2018-12-11T18:28:15.342Z,101607.70
2018-12-11T18:30:49.171Z,101614.02
2018-12-11T18:33:22.161Z,101613.21
2018-12-11T18:38:28.215Z,101616.12
2018-12-11T18:41:01.208Z,101616.64
2018-12-11T18:43:34.607Z,101614.73
2018-12-11T18:46:07.424Z,101619.16
2018-12-11T18:48:41.918Z,101617.25
2018-12-11T18:51:14.963Z,101618.12
2018-12-11T18:53:47.748Z,101614.38
2018-12-11T18:56:20.698Z,101620.23
2018-12-11T18:58:55.355Z,101617.97
2018-12-11T19:01:29.116Z,101619.00
2018-12-11T19:04:01.824Z,101621.75
2018-12-11T19:06:34.860Z,101625.24
2018-12-11T19:09:07.500Z,101621.97
2018-12-11T19:11:40.755Z,101617.91
2018-12-11T19:14:14.563Z,101616.86
2018-12-11T19:16:53.403Z,101611.81
2018-12-11T19:19:30.532Z,101619.30
2018-12-11T19:22:07.299Z,101619.33
2018-12-11T19:24:44.427Z,101617.03
2018-12-11T19:27:19.065Z,101621.66
2018-12-11T19:29:52.748Z,101611.66
2018-12-11T19:32:25.863Z,101612.92
2018-12-11T19:34:59.031Z,101614.08
2018-12-11T19:37:35.815Z,101615.67
2018-12-11T19:47:43.132Z,101631.45
2018-12-11T19:50:20.411Z,101631.48
2018-12-11T19:52:53.862Z,101632.53
2018-12-11T19:55:31.506Z,101636.86
2018-12-11T19:58:05.635Z,101636.02
2018-12-11T20:00:38.873Z,101634.84
2018-12-11T20:03:11.757Z,101636.71
2018-12-11T20:05:44.838Z,101635.65
2018-12-11T20:08:19.356Z,101636.70
2018-12-11T20:10:54.187Z,101643.31
2018-12-11T20:13:27.431Z,101642.30
2018-12-11T20:16:00.728Z,101643.58
2018-12-11T20:18:32.450Z,101636.91
2018-12-11T20:21:09.597Z,101644.43
2018-12-11T20:23:42.332Z,101648.61
2018-12-11T20:26:16.460Z,101650.05
2018-12-11T20:28:51.214Z,101642.31
2018-12-11T20:31:24.331Z,101647.84
2018-12-11T20:34:01.375Z,101656.47
2018-12-11T20:36:36.193Z,101658.49
2018-12-11T20:39:09.070Z,101660.29
2018-12-11T20:41:42.514Z,101660.39
2018-12-11T20:44:15.895Z,101654.02
2018-12-11T20:46:47.651Z,101662.98
2018-12-11T20:49:20.369Z,101663.17
2018-12-11T20:51:57.439Z,101670.05
2018-12-11T20:54:30.715Z,101671.91
2018-12-11T20:57:03.979Z,101680.09
2018-12-11T20:59:36.903Z,101676.04
2018-12-11T21:02:09.780Z,101673.73
2018-12-11T21:04:42.683Z,101668.94
2018-12-11T21:07:15.840Z,101669.91
2018-12-11T21:09:48.674Z,101676.95
2018-12-11T21:12:25.871Z,101670.54
2018-12-11T21:14:58.979Z,101677.75
2018-12-11T21:17:32.138Z,101664.80
2018-12-11T21:20:06.000Z,101668.42
2018-12-11T21:22:39.683Z,101673.95
2018-12-11T21:25:16.571Z,101670.30
2018-12-11T21:27:49.431Z,101671.00
2018-12-11T21:30:22.171Z,101668.25
2018-12-11T21:32:55.652Z,101670.09
2018-12-11T21:35:29.210Z,101672.77
2018-12-11T21:38:04.671Z,101670.56
2018-12-11T21:40:41.570Z,101672.08
2018-12-11T21:43:14.976Z,101673.13
2018-12-11T21:45:47.778Z,101671.80
2018-12-11T21:48:21.026Z,101681.55
2018-12-11T21:50:53.727Z,101677.80
2018-12-11T21:58:31.015Z,101682.62
2018-12-11T22:06:06.122Z,101688.48
2018-12-11T22:08:38.625Z,101690.31
2018-12-11T22:11:11.734Z,101680.91
2018-12-11T22:13:44.923Z,101676.69
2018-12-11T22:16:17.962Z,101679.30
2018-12-11T22:18:51.212Z,101678.78
2018-12-11T22:21:24.141Z,101676.76
2018-12-11T22:24:01.212Z,101680.39
2018-12-11T22:26:34.079Z,101680.87
2018-12-11T22:29:07.179Z,101679.66
2018-12-11T22:31:44.142Z,101682.38
2018-12-11T22:34:16.823Z,101678.08
2018-12-11T22:36:50.039Z,101681.86
2018-12-11T22:39:20.712Z,101692.61
2018-12-11T22:41:53.725Z,101695.42
2018-12-11T22:44:30.795Z,101691.95
2018-12-11T22:47:03.723Z,101690.63
2018-12-11T22:49:36.875Z,101692.17
2018-12-11T22:52:13.739Z,101687.19
2018-12-11T22:54:46.796Z,101690.75
2018-12-11T22:57:19.811Z,101692.84
2018-12-11T22:59:52.467Z,101698.30
2018-12-11T23:02:25.283Z,101693.16
2018-12-11T23:04:57.691Z,101698.94
2018-12-11T23:25:01.155Z,101709.27
2018-12-11T23:27:33.905Z,101708.22
2018-12-11T23:30:07.172Z,101712.04
2018-12-11T23:32:43.920Z,101709.33
2018-12-11T23:35:18.219Z,101709.06
2018-12-11T23:37:51.159Z,101709.54
2018-12-11T23:40:23.641Z,101714.56
2018-12-11T23:42:56.727Z,101713.30
2018-12-11T23:45:29.691Z,101718.20
2018-12-11T23:48:02.811Z,101715.13
2018-12-11T23:50:33.362Z,101705.14
2018-12-11T23:53:10.190Z,101709.00
2018-12-11T23:55:43.038Z,101713.36
2018-12-11T23:58:15.935Z,101709.66
